createdAt,value
2023-02-14T00:02:26.951Z,7.47
2023-02-14T00:05:28.652Z,7.05
2023-02-14T00:08:30.229Z,7.13
2023-02-14T00:11:32.116Z,7.90
2023-02-14T00:14:52.675Z,7.68
2023-02-14T00:17:56.795Z,6.82
2023-02-14T00:21:00.412Z,7.25
2023-02-14T00:24:06.454Z,7.38
2023-02-14T00:27:08.231Z,6.93
2023-02-14T00:30:11.619Z,6.00
2023-02-14T00:33:13.289Z,6.32
2023-02-14T00:36:15.480Z,5.95
2023-02-14T00:39:18.646Z,6.22
2023-02-14T00:42:20.399Z,7.38
2023-02-14T00:45:22.022Z,6.40
2023-02-14T00:48:23.742Z,7.10
2023-02-14T00:51:25.842Z,6.53
2023-02-14T00:54:27.481Z,7.28
2023-02-14T00:57:29.180Z,6.13
2023-02-14T01:00:32.169Z,5.82
2023-02-14T01:03:34.076Z,6.15
2023-02-14T01:06:37.702Z,6.78
2023-02-14T01:09:39.396Z,5.93
2023-02-14T01:12:40.984Z,6.30
2023-02-14T01:15:45.888Z,5.90
2023-02-14T01:18:48.638Z,5.95
2023-02-14T01:21:51.086Z,6.38
2023-02-14T01:24:52.770Z,6.28
2023-02-14T01:27:54.649Z,6.80
2023-02-14T01:30:56.338Z,6.32
2023-02-14T01:33:59.669Z,6.60
2023-02-14T01:37:11.916Z,5.53
2023-02-14T01:40:14.788Z,7.13
2023-02-14T01:43:18.023Z,6.57
2023-02-14T01:46:20.284Z,6.53
2023-02-14T01:49:26.144Z,6.68
2023-02-14T01:52:39.694Z,7.10
2023-02-14T01:55:46.650Z,6.07
2023-02-14T01:58:53.263Z,5.45
2023-02-14T02:01:55.678Z,6.38
2023-02-14T02:04:58.499Z,6.60
2023-02-14T02:08:01.925Z,5.22
2023-02-14T02:11:03.637Z,5.43
2023-02-14T02:14:05.387Z,6.35
2023-02-14T02:17:26.463Z,7.22
2023-02-14T02:21:02.120Z,6.40
2023-02-14T02:24:45.380Z,6.05
2023-02-14T02:27:46.986Z,6.28
2023-02-14T02:31:07.419Z,6.10
2023-02-14T02:34:55.178Z,6.50
2023-02-14T02:38:22.107Z,4.90
2023-02-14T02:41:36.602Z,5.45
2023-02-14T02:44:51.350Z,5.30
2023-02-14T02:48:17.797Z,5.40
2023-02-14T02:51:57.981Z,5.35
2023-02-14T02:55:06.595Z,5.30
2023-02-14T02:58:08.592Z,5.60
2023-02-14T03:01:15.317Z,5.00
2023-02-14T03:04:37.254Z,5.63
2023-02-14T03:07:40.459Z,5.45
2023-02-14T03:10:42.943Z,5.45
2023-02-14T03:13:53.944Z,5.57
2023-02-14T03:17:07.170Z,6.03
2023-02-14T03:20:20.712Z,5.70
2023-02-14T03:23:36.070Z,5.50
2023-02-14T03:26:51.631Z,4.97
2023-02-14T03:30:02.320Z,5.35
2023-02-14T03:33:14.119Z,5.50
2023-02-14T03:36:25.397Z,6.05
2023-02-14T03:39:52.855Z,5.43
2023-02-14T03:43:04.326Z,5.63
2023-02-14T03:46:48.551Z,5.28
2023-02-14T03:50:07.307Z,5.28
2023-02-14T03:53:11.125Z,5.22
2023-02-14T03:56:30.208Z,5.38
2023-02-14T03:59:31.919Z,5.35
2023-02-14T04:02:39.476Z,5.57
2023-02-14T04:05:43.857Z,5.28
2023-02-14T04:08:46.204Z,5.10
2023-02-14T04:11:50.414Z,4.78
2023-02-14T04:14:52.151Z,5.50
2023-02-14T04:18:25.897Z,4.70
2023-02-14T04:21:27.626Z,5.55
2023-02-14T04:24:29.213Z,4.80
2023-02-14T04:27:31.050Z,5.18
2023-02-14T04:30:32.676Z,5.22
2023-02-14T04:33:34.400Z,4.97
2023-02-14T04:36:36.016Z,5.05
2023-02-14T04:39:37.843Z,5.15
2023-02-14T04:42:39.441Z,4.90
2023-02-14T04:45:41.036Z,5.20
2023-02-14T04:48:42.624Z,4.78
2023-02-14T04:51:44.555Z,5.38
2023-02-14T04:54:46.129Z,4.93
2023-02-14T04:57:47.721Z,4.90
2023-02-14T05:00:49.376Z,5.00
2023-02-14T05:03:51.126Z,4.40
2023-02-14T05:06:52.746Z,4.57
2023-02-14T05:09:54.343Z,4.55
2023-02-14T05:12:55.986Z,5.47
2023-02-14T05:15:59.101Z,4.70
2023-02-14T05:19:00.804Z,4.70
2023-02-14T05:22:02.531Z,5.32
2023-02-14T05:25:04.414Z,4.75
2023-02-14T05:28:06.703Z,5.78
2023-02-14T05:31:09.604Z,5.63
2023-02-14T05:34:11.554Z,6.28
2023-02-14T05:37:13.275Z,5.03
2023-02-14T05:40:16.289Z,5.18
2023-02-14T05:43:18.072Z,5.57
2023-02-14T05:46:19.785Z,5.40
2023-02-14T05:49:21.505Z,5.32
2023-02-14T05:52:23.572Z,5.18
2023-02-14T05:55:26.226Z,4.60
2023-02-14T05:58:28.069Z,4.93
2023-02-14T06:01:29.635Z,5.28
2023-02-14T06:04:31.321Z,5.70
2023-02-14T06:07:33.003Z,5.30
2023-02-14T06:10:34.662Z,4.50
2023-02-14T06:13:36.249Z,4.53
2023-02-14T06:16:37.888Z,4.85
2023-02-14T06:19:39.658Z,5.70
2023-02-14T06:22:41.251Z,4.55
2023-02-14T06:25:42.935Z,4.72
2023-02-14T06:28:44.529Z,4.57
2023-02-14T06:31:46.353Z,5.05
2023-02-14T06:34:48.456Z,6.00
2023-02-14T06:37:50.533Z,4.25
2023-02-14T06:40:52.150Z,4.68
2023-02-14T06:43:54.160Z,4.30
2023-02-14T06:46:55.778Z,4.82
2023-02-14T06:49:59.890Z,4.70
2023-02-14T06:53:01.598Z,4.72
2023-02-14T06:56:04.120Z,5.00
2023-02-14T06:59:06.356Z,5.20
2023-02-14T07:02:11.124Z,4.75
2023-02-14T07:05:12.767Z,4.72
2023-02-14T07:08:14.365Z,4.35
2023-02-14T07:11:16.035Z,4.50
2023-02-14T07:14:18.024Z,4.47
2023-02-14T07:17:19.656Z,4.13
2023-02-14T07:20:21.905Z,5.32
2023-02-14T07:23:23.556Z,5.22
2023-02-14T07:26:25.216Z,4.95
2023-02-14T07:29:26.809Z,4.40
2023-02-14T07:32:28.445Z,4.30
2023-02-14T07:35:30.094Z,4.70
2023-02-14T07:38:31.763Z,4.72
2023-02-14T07:41:33.542Z,5.13
2023-02-14T07:44:35.232Z,5.93
2023-02-14T07:47:36.883Z,5.70
2023-02-14T07:50:38.446Z,5.57
2023-02-14T07:53:41.128Z,5.28
2023-02-14T07:56:42.913Z,6.30
2023-02-14T07:59:44.466Z,13.02
2023-02-14T08:02:46.282Z,7.57
2023-02-14T08:05:57.286Z,6.30
2023-02-14T08:08:59.126Z,5.80
2023-02-14T08:12:19.372Z,5.57
2023-02-14T08:15:39.246Z,6.25
2023-02-14T08:18:41.996Z,5.95
2023-02-14T08:21:43.604Z,6.90
2023-02-14T08:24:45.211Z,6.38
2023-02-14T08:27:46.808Z,6.50
2023-02-14T08:30:48.616Z,8.73
2023-02-14T08:33:50.223Z,7.60
2023-02-14T08:36:52.118Z,5.35
2023-02-14T08:39:53.872Z,5.65
2023-02-14T08:42:55.551Z,5.68
2023-02-14T08:45:57.334Z,6.43
2023-02-14T08:48:59.036Z,5.78
2023-02-14T08:52:00.701Z,5.93
2023-02-14T08:55:02.930Z,6.25
2023-02-14T08:58:05.698Z,5.47
2023-02-14T09:01:17.788Z,5.22
2023-02-14T09:04:19.457Z,5.32
2023-02-14T09:07:21.884Z,5.97
2023-02-14T09:10:24.653Z,5.45
2023-02-14T09:13:26.274Z,5.28
2023-02-14T09:16:28.033Z,5.18
2023-02-14T09:19:29.648Z,4.75
2023-02-14T09:22:31.664Z,5.10
2023-02-14T09:25:33.377Z,5.10
2023-02-14T09:28:35.578Z,4.88
2023-02-14T09:31:37.273Z,4.78
2023-02-14T09:34:38.996Z,4.68
2023-02-14T09:37:40.763Z,5.55
2023-02-14T09:40:48.753Z,4.38
2023-02-14T09:44:07.605Z,5.45
2023-02-14T09:47:15.118Z,4.75
2023-02-14T09:50:28.209Z,7.95
2023-02-14T09:53:33.886Z,7.03
2023-02-14T09:56:57.609Z,7.63
2023-02-14T10:00:05.416Z,8.60
2023-02-14T10:03:26.850Z,8.20
2023-02-14T10:06:48.374Z,8.75
2023-02-14T10:10:02.263Z,9.68
2023-02-14T10:13:34.200Z,9.48
2023-02-14T10:16:46.216Z,10.35
2023-02-14T10:19:56.049Z,11.73
2023-02-14T10:23:04.442Z,12.48
2023-02-14T10:26:21.317Z,11.38
2023-02-14T10:29:23.259Z,9.95
2023-02-14T10:32:40.065Z,12.02
2023-02-14T10:35:52.447Z,10.75
2023-02-14T10:39:12.527Z,11.35
2023-02-14T10:42:38.466Z,12.00
2023-02-14T10:45:56.721Z,12.55
2023-02-14T10:49:16.303Z,13.32
2023-02-14T10:52:47.953Z,10.02
2023-02-14T10:56:07.006Z,10.02
2023-02-14T10:59:21.917Z,10.38
2023-02-14T11:02:30.384Z,11.63
2023-02-14T11:05:39.120Z,13.02
2023-02-14T11:08:41.573Z,10.70
2023-02-14T11:11:58.773Z,12.30
2023-02-14T11:18:24.419Z,11.30
2023-02-14T11:21:37.720Z,12.82
2023-02-14T11:24:42.274Z,13.05
2023-02-14T11:27:49.972Z,12.85
2023-02-14T11:30:52.357Z,12.18
2023-02-14T11:33:54.464Z,13.43
2023-02-14T11:36:56.171Z,13.60
2023-02-14T11:40:00.332Z,13.23
2023-02-14T11:43:29.627Z,12.85
2023-02-14T11:46:38.605Z,11.52
2023-02-14T11:50:01.264Z,11.68
2023-02-14T11:53:03.619Z,11.10
2023-02-14T11:56:05.901Z,12.30
2023-02-14T11:59:07.694Z,11.60
2023-02-14T12:02:22.981Z,10.55
2023-02-14T12:05:31.364Z,11.38
2023-02-14T12:08:33.064Z,10.48
2023-02-14T12:11:34.651Z,11.48
2023-02-14T12:14:36.487Z,12.13
2023-02-14T12:17:40.054Z,10.23
2023-02-14T12:21:12.686Z,10.43
2023-02-14T12:24:27.968Z,9.70
2023-02-14T12:27:52.336Z,10.23
2023-02-14T12:30:54.307Z,10.27
2023-02-14T12:33:56.448Z,10.25
2023-02-14T12:37:22.638Z,9.57
2023-02-14T12:40:27.051Z,9.65
2023-02-14T12:43:53.282Z,9.93
2023-02-14T12:47:10.301Z,10.35
2023-02-14T12:50:37.129Z,10.52
2023-02-14T12:54:13.128Z,11.50
2023-02-14T12:57:41.188Z,10.65
2023-02-14T13:01:04.521Z,9.93
2023-02-14T13:04:37.274Z,10.52
2023-02-14T13:08:01.310Z,10.80
2023-02-14T13:11:29.198Z,9.98
2023-02-14T13:15:00.912Z,10.25
2023-02-14T13:18:18.191Z,10.13
2023-02-14T13:21:26.521Z,10.68
2023-02-14T13:24:38.260Z,10.15
2023-02-14T13:27:40.790Z,9.90
2023-02-14T13:30:43.212Z,8.98
2023-02-14T13:33:52.464Z,9.95
2023-02-14T13:36:57.176Z,10.48
2023-02-14T13:40:03.275Z,9.55
2023-02-14T13:43:04.987Z,10.00
2023-02-14T13:46:06.812Z,11.80
2023-02-14T13:49:23.834Z,10.23
2023-02-14T13:55:44.512Z,9.40
2023-02-14T13:59:04.525Z,9.63
2023-02-14T14:02:30.111Z,9.73
2023-02-14T14:05:32.913Z,9.57
2023-02-14T14:08:42.404Z,9.77
2023-02-14T14:11:44.398Z,10.43
2023-02-14T14:15:06.130Z,10.10
2023-02-14T14:18:13.881Z,11.02
2023-02-14T14:21:27.357Z,10.73
2023-02-14T14:24:34.899Z,9.40
2023-02-14T14:27:44.099Z,10.30
2023-02-14T14:30:46.661Z,10.13
2023-02-14T14:33:58.733Z,9.77
2023-02-14T14:37:15.572Z,10.90
2023-02-14T14:40:31.559Z,10.48
2023-02-14T14:43:36.473Z,9.60
2023-02-14T14:46:38.149Z,11.48
2023-02-14T14:49:39.715Z,10.32
2023-02-14T14:52:46.516Z,9.48
2023-02-14T14:58:54.812Z,9.98
2023-02-14T15:01:56.846Z,11.27
2023-02-14T15:05:13.402Z,11.02
2023-02-14T15:08:33.110Z,11.13
2023-02-14T15:11:53.701Z,11.60
2023-02-14T15:14:56.883Z,11.00
2023-02-14T15:17:58.571Z,11.07
2023-02-14T15:21:01.295Z,10.65
2023-02-14T15:24:03.780Z,10.73
2023-02-14T15:27:14.592Z,10.25
2023-02-14T15:30:19.253Z,11.85
2023-02-14T15:33:21.154Z,11.10
2023-02-14T15:36:27.658Z,9.63
2023-02-14T15:39:43.108Z,9.60
2023-02-14T15:42:45.612Z,10.48
2023-02-14T15:45:51.083Z,10.15
2023-02-14T15:48:54.787Z,10.93
2023-02-14T15:51:56.884Z,10.80
2023-02-14T15:54:58.533Z,11.52
2023-02-14T15:58:04.728Z,11.05
2023-02-14T16:01:08.022Z,10.35
2023-02-14T16:04:10.873Z,11.63
2023-02-14T16:07:27.734Z,10.10
2023-02-14T16:10:38.023Z,10.90
2023-02-14T16:13:42.099Z,9.73
2023-02-14T16:17:00.387Z,9.70
2023-02-14T16:20:43.446Z,9.68
2023-02-14T16:24:11.508Z,10.35
2023-02-14T16:27:13.293Z,10.02
2023-02-14T16:30:17.309Z,9.82
2023-02-14T16:33:22.658Z,10.05
2023-02-14T16:36:27.746Z,10.88
2023-02-14T16:39:29.455Z,11.18
2023-02-14T16:42:32.729Z,9.73
2023-02-14T16:45:34.292Z,9.32
2023-02-14T16:48:36.773Z,8.82
2023-02-14T16:51:42.907Z,9.18
2023-02-14T16:54:44.502Z,8.95
2023-02-14T16:57:50.616Z,9.07
2023-02-14T17:00:52.173Z,10.30
2023-02-14T17:03:53.752Z,9.70
2023-02-14T17:06:57.459Z,10.15
2023-02-14T17:10:07.700Z,9.52
2023-02-14T17:13:11.055Z,9.50
2023-02-14T17:16:15.647Z,10.00
2023-02-14T17:19:17.834Z,9.95
2023-02-14T17:22:19.889Z,10.73
2023-02-14T17:25:21.571Z,10.30
2023-02-14T17:28:25.482Z,12.23
2023-02-14T17:31:28.577Z,10.73
2023-02-14T17:34:33.960Z,10.73
2023-02-14T17:37:36.738Z,10.32
2023-02-14T17:40:38.325Z,13.05
2023-02-14T17:43:40.120Z,12.60
2023-02-14T17:46:41.775Z,12.35
2023-02-14T17:49:47.155Z,11.80
2023-02-14T17:52:52.663Z,12.27
2023-02-14T17:55:54.252Z,13.05
2023-02-14T17:58:56.222Z,13.88
2023-02-14T18:01:58.709Z,15.75
2023-02-14T18:05:00.417Z,13.77
2023-02-14T18:08:02.898Z,17.95
2023-02-14T18:11:09.337Z,12.93
2023-02-14T18:14:10.981Z,10.93
2023-02-14T18:17:13.641Z,10.10
2023-02-14T18:20:15.179Z,12.15
2023-02-14T18:23:17.518Z,11.70
2023-02-14T18:26:19.582Z,12.82
2023-02-14T18:29:21.201Z,11.82
2023-02-14T18:32:22.770Z,10.35
2023-02-14T18:35:24.384Z,11.45
2023-02-14T18:38:25.976Z,11.25
2023-02-14T18:41:28.399Z,10.10
2023-02-14T18:44:30.132Z,10.90
2023-02-14T18:47:31.721Z,12.25
2023-02-14T18:50:34.089Z,10.27
2023-02-14T18:53:40.013Z,10.82
2023-02-14T18:56:41.619Z,10.53
2023-02-14T18:59:43.186Z,10.75
2023-02-14T19:02:44.962Z,11.13
2023-02-14T19:05:46.510Z,14.15
2023-02-14T19:08:48.602Z,11.30
2023-02-14T19:11:50.173Z,11.55
2023-02-14T19:14:55.657Z,11.45
2023-02-14T19:17:57.206Z,10.68
2023-02-14T19:21:08.778Z,10.40
2023-02-14T19:24:10.554Z,10.70
2023-02-14T19:27:14.741Z,10.85
2023-02-14T19:30:16.557Z,10.88
2023-02-14T19:33:19.810Z,10.85
2023-02-14T19:36:23.584Z,10.88
2023-02-14T19:39:29.361Z,12.45
2023-02-14T19:42:31.009Z,10.27
2023-02-14T19:45:32.692Z,11.20
2023-02-14T19:48:34.430Z,11.48
2023-02-14T19:51:36.313Z,10.43
2023-02-14T19:54:38.859Z,11.88
2023-02-14T19:57:41.141Z,9.90
2023-02-14T20:00:42.855Z,9.68
2023-02-14T20:03:44.469Z,10.05
2023-02-14T20:06:46.913Z,9.98
2023-02-14T20:09:50.195Z,9.70
2023-02-14T20:12:51.994Z,10.27
2023-02-14T20:15:53.554Z,10.40
2023-02-14T20:18:55.325Z,9.15
2023-02-14T20:21:56.983Z,9.88
2023-02-14T20:24:58.679Z,9.07
2023-02-14T20:28:00.289Z,9.75
2023-02-14T20:31:07.346Z,9.77
2023-02-14T20:34:09.580Z,10.68
2023-02-14T20:37:11.524Z,9.77
2023-02-14T20:40:13.889Z,9.57
2023-02-14T20:43:16.542Z,9.07
2023-02-14T20:46:18.371Z,9.25
2023-02-14T20:49:21.711Z,9.48
2023-02-14T20:52:23.358Z,8.52
2023-02-14T20:55:27.095Z,9.70
2023-02-14T20:58:31.296Z,9.73
2023-02-14T21:01:33.034Z,8.07
2023-02-14T21:04:35.160Z,8.95
2023-02-14T21:07:36.794Z,8.60
2023-02-14T21:10:38.342Z,8.95
2023-02-14T21:13:40.339Z,9.50
2023-02-14T21:16:41.941Z,8.95
2023-02-14T21:19:46.532Z,9.15
2023-02-14T21:22:48.302Z,9.65
2023-02-14T21:25:49.924Z,9.93
2023-02-14T21:28:51.979Z,8.88
2023-02-14T21:31:53.602Z,9.32
2023-02-14T21:34:55.668Z,7.93
2023-02-14T21:37:57.344Z,8.23
2023-02-14T21:41:09.050Z,8.15
2023-02-14T21:44:30.577Z,9.15
2023-02-14T21:47:36.625Z,9.13
2023-02-14T21:50:38.210Z,8.90
2023-02-14T21:53:39.799Z,9.07
2023-02-14T21:56:42.036Z,9.32
2023-02-14T21:59:43.637Z,8.98
2023-02-14T22:02:45.320Z,9.20
2023-02-14T22:05:46.919Z,8.20
2023-02-14T22:08:56.536Z,9.43
2023-02-14T22:11:58.183Z,8.00
2023-02-14T22:15:01.354Z,8.32
2023-02-14T22:18:02.913Z,8.38
2023-02-14T22:21:16.476Z,8.57
2023-02-14T22:24:18.109Z,7.95
2023-02-14T22:27:19.722Z,8.25
2023-02-14T22:30:21.364Z,7.72
2023-02-14T22:33:24.345Z,8.65
2023-02-14T22:36:25.928Z,8.38
2023-02-14T22:39:27.610Z,8.20
2023-02-14T22:42:29.315Z,7.90
2023-02-14T22:45:30.875Z,8.60
2023-02-14T22:48:34.647Z,9.02
2023-02-14T22:51:41.193Z,8.70
2023-02-14T22:54:42.779Z,9.88
2023-02-14T22:57:44.545Z,9.88
2023-02-14T23:00:46.105Z,8.63
2023-02-14T23:03:48.506Z,8.15
2023-02-14T23:06:51.906Z,8.38
2023-02-14T23:09:53.461Z,9.07
2023-02-14T23:13:13.803Z,8.63
2023-02-14T23:16:34.275Z,8.75
2023-02-14T23:19:55.629Z,8.73
2023-02-14T23:22:57.247Z,8.65
2023-02-14T23:26:00.300Z,8.20
2023-02-14T23:29:02.241Z,11.05
2023-02-14T23:32:06.352Z,9.05
2023-02-14T23:35:08.296Z,8.20
2023-02-14T23:38:09.958Z,7.72
2023-02-14T23:41:30.268Z,8.75
2023-02-14T23:44:33.309Z,8.65
2023-02-14T23:47:34.892Z,8.55
2023-02-14T23:50:36.511Z,8.00
2023-02-14T23:53:38.079Z,9.15
2023-02-14T23:56:40.244Z,8.60
2023-02-14T23:59:41.780Z,9.63
